createdAt,value
2023-09-19T00:00:40.506Z,74.38
2023-09-19T00:03:06.827Z,73.82
2023-09-19T00:05:33.858Z,74.29
2023-09-19T00:08:00.053Z,74.84
2023-09-19T00:10:27.802Z,74.31
2023-09-19T00:12:54.040Z,74.69
2023-09-19T00:15:20.236Z,74.02
2023-09-19T00:17:46.570Z,74.47
2023-09-19T00:20:12.894Z,74.32
2023-09-19T00:22:39.124Z,74.26
2023-09-19T00:25:07.848Z,73.99
2023-09-19T00:27:34.044Z,74.09
2023-09-19T00:30:00.271Z,74.04
2023-09-19T00:32:27.636Z,74.04
2023-09-19T00:34:54.007Z,74.49
2023-09-19T00:37:23.079Z,74.51
2023-09-19T00:39:49.516Z,74.67
2023-09-19T00:42:16.256Z,74.21
2023-09-19T00:44:42.471Z,74.51
2023-09-19T00:47:08.909Z,75.02
2023-09-19T00:49:35.295Z,75.11
2023-09-19T00:52:01.499Z,74.86
2023-09-19T00:54:27.695Z,74.48
2023-09-19T00:56:53.905Z,75.33
2023-09-19T00:59:20.327Z,75.29
2023-09-19T01:01:46.949Z,74.38
2023-09-19T01:04:13.379Z,74.05
2023-09-19T01:06:39.751Z,74.65
2023-09-19T01:09:09.006Z,74.63
2023-09-19T01:11:35.210Z,74.43
2023-09-19T01:14:01.406Z,75.16
2023-09-19T01:16:27.715Z,74.60
2023-09-19T01:18:55.276Z,74.65
2023-09-19T01:21:21.453Z,74.19
2023-09-19T01:23:47.729Z,74.41
2023-09-19T01:26:16.072Z,73.86
2023-09-19T01:28:42.662Z,75.43
2023-09-19T01:31:09.363Z,75.12
2023-09-19T01:33:36.659Z,74.51
2023-09-19T01:36:02.867Z,74.17
2023-09-19T01:38:29.109Z,74.70
2023-09-19T01:40:55.402Z,74.36
2023-09-19T01:43:21.813Z,73.95
2023-09-19T01:45:48.133Z,73.96
2023-09-19T01:48:14.547Z,74.42
2023-09-19T01:50:40.786Z,74.00
2023-09-19T01:53:06.958Z,73.30
2023-09-19T01:55:33.210Z,73.87
2023-09-19T01:57:59.402Z,73.30
2023-09-19T02:00:25.594Z,73.33
2023-09-19T02:02:51.946Z,73.36
2023-09-19T02:05:18.205Z,73.67
2023-09-19T02:07:44.444Z,73.35
2023-09-19T02:10:10.715Z,73.94
2023-09-19T02:15:21.882Z,73.65
2023-09-19T02:17:48.249Z,73.29
2023-09-19T02:20:14.458Z,72.98
2023-09-19T02:22:40.658Z,72.67
2023-09-19T02:25:06.965Z,72.84
2023-09-19T02:27:33.229Z,72.95
2023-09-19T02:29:59.636Z,72.70
2023-09-19T02:32:26.037Z,72.17
2023-09-19T02:34:52.361Z,73.62
2023-09-19T02:37:18.640Z,73.69
2023-09-19T02:39:44.951Z,73.27
2023-09-19T02:42:11.162Z,73.20
2023-09-19T02:44:37.348Z,73.14
2023-09-19T02:47:03.988Z,72.86
2023-09-19T02:49:30.469Z,72.59
2023-09-19T02:51:56.673Z,72.24
2023-09-19T02:57:06.830Z,71.72
2023-09-19T02:59:33.054Z,71.62
2023-09-19T03:01:59.478Z,71.13
2023-09-19T03:04:25.840Z,71.76
2023-09-19T03:06:52.113Z,70.93
2023-09-19T03:09:20.796Z,69.74
2023-09-19T03:11:47.023Z,71.43
2023-09-19T03:14:13.308Z,70.61
2023-09-19T03:16:39.657Z,69.70
2023-09-19T03:19:07.123Z,70.64
2023-09-19T03:21:33.368Z,70.19
2023-09-19T03:23:59.740Z,70.17
2023-09-19T03:26:25.962Z,68.37
2023-09-19T03:28:52.232Z,69.50
2023-09-19T03:31:18.528Z,69.73
2023-09-19T03:33:45.916Z,69.13
2023-09-19T03:36:12.122Z,70.23
2023-09-19T03:38:38.332Z,69.84
2023-09-19T03:41:04.678Z,69.11
2023-09-19T03:43:30.975Z,69.07
2023-09-19T03:45:57.208Z,70.71
2023-09-19T03:48:23.463Z,70.10
2023-09-19T03:50:49.845Z,69.63
2023-09-19T03:53:16.032Z,70.58
2023-09-19T03:55:42.250Z,70.42
2023-09-19T03:58:08.573Z,70.00
2023-09-19T04:00:35.944Z,71.22
2023-09-19T04:03:04.055Z,70.06
2023-09-19T04:05:30.337Z,70.18
2023-09-19T04:07:56.575Z,71.40
2023-09-19T04:10:22.810Z,70.88
2023-09-19T04:20:55.747Z,71.29
2023-09-19T04:23:21.973Z,71.07
2023-09-19T04:25:48.296Z,70.87
2023-09-19T04:28:17.608Z,70.12
2023-09-19T04:30:43.875Z,70.38
2023-09-19T04:33:10.220Z,70.53
2023-09-19T04:35:40.710Z,70.36
2023-09-19T04:38:06.914Z,70.21
2023-09-19T04:40:33.157Z,70.02
2023-09-19T04:42:59.366Z,70.33
2023-09-19T04:45:25.688Z,70.59
2023-09-19T04:47:52.190Z,70.05
2023-09-19T04:50:18.674Z,70.59
2023-09-19T04:52:49.532Z,70.45
2023-09-19T04:55:15.777Z,70.47
2023-09-19T04:57:42.004Z,70.20
2023-09-19T05:00:08.163Z,70.35
2023-09-19T05:02:35.614Z,70.22
2023-09-19T05:05:01.957Z,69.87
2023-09-19T05:07:28.370Z,69.37
2023-09-19T05:09:54.631Z,69.35
2023-09-19T05:12:21.138Z,69.51
2023-09-19T05:14:47.485Z,70.07
2023-09-19T05:17:13.918Z,70.00
2023-09-19T05:19:40.248Z,70.07
2023-09-19T05:22:06.450Z,70.73
2023-09-19T05:24:32.623Z,70.39
2023-09-19T05:26:58.805Z,70.80
2023-09-19T05:29:25.020Z,71.22
2023-09-19T05:31:51.405Z,71.15
2023-09-19T05:34:17.788Z,71.57
2023-09-19T05:36:44.004Z,71.57
2023-09-19T05:39:10.246Z,71.58
2023-09-19T05:41:36.525Z,71.63
2023-09-19T05:44:04.261Z,72.06
2023-09-19T05:46:30.655Z,71.99
2023-09-19T05:48:56.920Z,71.27
2023-09-19T05:51:23.108Z,71.74
2023-09-19T05:53:49.648Z,72.39
2023-09-19T05:56:15.809Z,71.84
2023-09-19T05:58:42.268Z,71.79
2023-09-19T06:01:08.577Z,71.57
2023-09-19T06:03:42.857Z,71.85
2023-09-19T06:06:09.448Z,70.93
2023-09-19T06:08:39.886Z,71.25
2023-09-19T06:11:06.187Z,71.22
2023-09-19T06:13:32.613Z,71.06
2023-09-19T06:16:05.122Z,69.53
2023-09-19T06:18:31.375Z,70.19
2023-09-19T06:21:00.170Z,69.35
2023-09-19T06:23:41.903Z,69.71
2023-09-19T06:29:13.184Z,68.47
2023-09-19T06:34:37.757Z,68.76
2023-09-19T06:39:50.216Z,68.52
2023-09-19T06:42:21.191Z,68.58
2023-09-19T06:53:35.046Z,68.29
2023-09-19T06:59:03.714Z,67.20
2023-09-19T07:21:23.904Z,67.03
2023-09-19T07:23:40.661Z,66.34
2023-09-19T07:26:07.340Z,66.81
2023-09-19T07:34:07.626Z,66.11
2023-09-19T07:39:23.306Z,66.72
2023-09-19T07:50:03.725Z,66.42
2023-09-19T07:52:29.990Z,66.39
2023-09-19T07:54:56.187Z,65.53
2023-09-19T07:57:22.378Z,65.59
2023-09-19T07:59:48.521Z,66.01
2023-09-19T08:02:14.719Z,65.40
2023-09-19T08:04:41.221Z,64.56
2023-09-19T08:07:07.477Z,64.55
2023-09-19T08:09:33.656Z,65.25
2023-09-19T08:11:59.793Z,63.66
2023-09-19T08:14:25.947Z,64.48
2023-09-19T08:16:52.421Z,64.22
2023-09-19T08:19:18.853Z,64.38
2023-09-19T08:21:44.998Z,62.84
2023-09-19T08:24:11.169Z,63.67
2023-09-19T08:26:37.364Z,64.21
2023-09-19T08:31:29.788Z,63.78
2023-09-19T08:33:56.187Z,62.67
2023-09-19T08:36:22.370Z,62.82
2023-09-19T08:38:48.607Z,62.34
2023-09-19T08:41:14.817Z,62.89
2023-09-19T08:43:41.248Z,62.56
2023-09-19T08:46:07.665Z,62.03
2023-09-19T08:48:33.830Z,62.21
2023-09-19T08:51:00.008Z,62.20
2023-09-19T08:53:26.162Z,62.04
2023-09-19T08:55:52.342Z,61.83
2023-09-19T08:58:18.576Z,61.26
2023-09-19T09:00:44.751Z,61.46
2023-09-19T09:03:11.001Z,61.14
2023-09-19T09:05:37.258Z,60.04
2023-09-19T09:08:03.481Z,60.62
2023-09-19T09:10:29.686Z,60.50
2023-09-19T09:12:55.835Z,60.21
2023-09-19T09:15:22.011Z,59.24
2023-09-19T09:17:48.259Z,59.78
2023-09-19T09:20:14.495Z,58.68
2023-09-19T09:22:40.701Z,59.06
2023-09-19T09:25:06.890Z,59.62
2023-09-19T09:27:33.176Z,59.68
2023-09-19T09:29:59.560Z,58.66
2023-09-19T09:32:25.766Z,57.84
2023-09-19T09:34:52.187Z,57.31
2023-09-19T09:37:18.367Z,57.74
2023-09-19T09:39:44.531Z,57.03
2023-09-19T09:42:10.673Z,56.22
2023-09-19T09:44:37.064Z,54.95
2023-09-19T09:47:03.274Z,56.26
2023-09-19T09:49:29.524Z,56.53
2023-09-19T09:51:55.691Z,55.71
2023-09-19T09:54:21.867Z,55.20
2023-09-19T09:56:48.024Z,55.07
2023-09-19T09:59:14.185Z,54.88
2023-09-19T10:01:40.467Z,54.82
2023-09-19T10:04:06.838Z,54.31
2023-09-19T10:06:33.022Z,54.49
2023-09-19T10:08:59.181Z,54.38
2023-09-19T10:11:25.361Z,53.98
2023-09-19T10:13:51.554Z,53.89
2023-09-19T10:16:17.776Z,53.29
2023-09-19T10:18:43.967Z,51.97
2023-09-19T10:21:10.246Z,52.88
2023-09-19T10:23:36.391Z,51.95
2023-09-19T10:26:02.620Z,51.70
2023-09-19T10:28:28.871Z,51.34
2023-09-19T10:33:39.198Z,51.13
2023-09-19T10:36:05.654Z,51.29
2023-09-19T10:38:31.783Z,50.95
2023-09-19T10:40:58.081Z,51.43
2023-09-19T10:43:24.283Z,50.71
2023-09-19T10:45:50.532Z,50.60
2023-09-19T10:48:16.893Z,50.97
2023-09-19T10:50:43.067Z,50.40
2023-09-19T10:55:53.232Z,49.76
2023-09-19T10:58:19.525Z,49.38
2023-09-19T11:00:45.681Z,49.04
2023-09-19T11:11:36.542Z,49.08
2023-09-19T11:14:02.874Z,49.12
2023-09-19T11:16:29.112Z,48.11
2023-09-19T11:18:55.616Z,48.43
2023-09-19T11:24:05.689Z,47.54
2023-09-19T11:26:31.835Z,49.23
2023-09-19T11:28:58.148Z,48.32
2023-09-19T11:31:24.486Z,47.35
2023-09-19T11:33:50.618Z,47.78
2023-09-19T11:36:17.046Z,47.87
2023-09-19T11:38:43.526Z,48.02
2023-09-19T11:41:09.786Z,48.70
2023-09-19T11:43:36.207Z,48.25
2023-09-19T11:46:02.518Z,47.65
2023-09-19T11:48:28.859Z,48.85
2023-09-19T11:50:55.074Z,48.32
2023-09-19T11:53:21.231Z,47.22
2023-09-19T11:55:47.497Z,47.05
2023-09-19T11:58:13.816Z,46.89
2023-09-19T12:06:20.568Z,46.92
2023-09-19T12:14:27.384Z,46.42
2023-09-19T12:16:53.705Z,45.91
2023-09-19T12:19:19.912Z,48.22
2023-09-19T12:21:46.070Z,46.20
2023-09-19T12:24:12.360Z,46.17
2023-09-19T12:26:38.517Z,47.42
2023-09-19T12:29:04.698Z,45.95
2023-09-19T12:31:30.887Z,46.04
2023-09-19T12:33:57.290Z,45.90
2023-09-19T12:36:23.521Z,46.58
2023-09-19T12:38:49.747Z,46.49
2023-09-19T12:41:17.937Z,47.24
2023-09-19T12:43:44.410Z,47.38
2023-09-19T12:46:11.906Z,46.92
2023-09-19T12:48:38.253Z,46.93
2023-09-19T12:51:04.415Z,47.72
2023-09-19T12:53:30.738Z,48.36
2023-09-19T12:55:57.139Z,47.95
2023-09-19T12:58:23.439Z,47.81
2023-09-19T13:00:49.713Z,47.23
2023-09-19T13:03:16.092Z,46.97
2023-09-19T13:05:42.321Z,47.33
2023-09-19T13:08:08.498Z,48.06
2023-09-19T13:10:34.710Z,47.87
2023-09-19T13:13:00.861Z,47.50
2023-09-19T13:15:27.040Z,46.29
2023-09-19T13:17:53.343Z,45.40
2023-09-19T13:20:21.570Z,45.44
2023-09-19T13:22:48.865Z,45.75
2023-09-19T13:25:15.210Z,45.11
2023-09-19T13:27:41.442Z,44.28
2023-09-19T13:30:07.690Z,44.10
2023-09-19T13:32:34.047Z,43.80
2023-09-19T13:35:00.326Z,43.39
2023-09-19T13:37:26.509Z,43.57
2023-09-19T13:39:52.720Z,43.63
2023-09-19T13:42:18.892Z,43.10
2023-09-19T13:44:45.091Z,43.45
2023-09-19T13:47:11.459Z,42.89
2023-09-19T13:49:37.834Z,43.91
2023-09-19T13:52:04.006Z,43.07
2023-09-19T13:54:30.148Z,42.98
2023-09-19T13:56:56.299Z,43.16
2023-09-19T13:59:22.499Z,43.22
2023-09-19T14:01:48.996Z,42.81
2023-09-19T14:04:15.178Z,43.03
2023-09-19T14:06:41.365Z,42.88
2023-09-19T14:09:07.537Z,42.31
2023-09-19T14:11:33.666Z,43.04
2023-09-19T14:13:59.850Z,43.40
2023-09-19T14:53:22.441Z,44.80
2023-09-19T14:55:48.858Z,44.76
2023-09-19T14:58:15.038Z,44.07
2023-09-19T15:00:41.310Z,44.98
2023-09-19T15:03:07.659Z,44.27
2023-09-19T15:05:34.078Z,45.53
2023-09-19T15:08:00.521Z,44.69
2023-09-19T15:10:26.784Z,44.69
2023-09-19T15:12:52.946Z,44.07
2023-09-19T15:15:19.091Z,45.33
2023-09-19T15:17:45.305Z,44.48
2023-09-19T15:20:12.666Z,45.49
2023-09-19T15:22:41.429Z,45.04
2023-09-19T15:25:07.993Z,45.70
2023-09-19T15:27:36.585Z,45.86
2023-09-19T15:30:02.953Z,47.12
2023-09-19T15:32:29.313Z,46.28
2023-09-19T15:34:55.780Z,46.76
2023-09-19T15:37:22.094Z,46.73
2023-09-19T15:39:48.427Z,46.21
2023-09-19T15:42:14.668Z,48.06
2023-09-19T15:44:40.808Z,47.35
2023-09-19T16:01:18.296Z,49.19
2023-09-19T16:03:44.659Z,48.79
2023-09-19T16:06:10.824Z,48.76
2023-09-19T16:08:36.968Z,48.34
2023-09-19T16:11:03.138Z,48.58
2023-09-19T16:13:29.325Z,49.04
2023-09-19T16:15:55.561Z,48.42
2023-09-19T16:18:21.863Z,48.42
2023-09-19T16:20:48.179Z,48.15
2023-09-19T16:23:14.476Z,49.18
2023-09-19T16:25:40.666Z,48.68
2023-09-19T16:28:06.827Z,48.36
2023-09-19T16:30:32.992Z,49.02
2023-09-19T16:32:59.151Z,49.49
2023-09-19T16:35:25.316Z,49.36
2023-09-19T16:37:51.580Z,49.80
2023-09-19T16:40:17.782Z,50.56
2023-09-19T16:42:43.929Z,51.09
2023-09-19T16:45:10.116Z,51.55
2023-09-19T16:47:36.344Z,50.66
2023-09-19T16:50:02.598Z,51.01
2023-09-19T16:52:28.951Z,50.80
2023-09-19T16:54:55.105Z,51.09
2023-09-19T16:57:21.313Z,51.25
2023-09-19T16:59:47.469Z,51.88
2023-09-19T17:02:13.785Z,51.50
2023-09-19T17:04:40.055Z,51.72
2023-09-19T17:07:06.281Z,52.57
2023-09-19T17:09:32.444Z,52.94
2023-09-19T17:11:58.603Z,53.63
2023-09-19T17:14:24.785Z,53.11
2023-09-19T17:16:51.066Z,53.63
2023-09-19T17:19:17.234Z,53.64
2023-09-19T17:21:43.403Z,53.34
2023-09-19T17:24:09.664Z,53.68
2023-09-19T17:26:35.825Z,53.50
2023-09-19T17:29:02.037Z,54.33
2023-09-19T17:31:28.233Z,54.21
2023-09-19T17:33:54.423Z,54.11
2023-09-19T17:36:20.572Z,53.85
2023-09-19T17:38:46.818Z,53.87
2023-09-19T17:41:13.000Z,53.53
2023-09-19T17:43:39.274Z,54.64
2023-09-19T17:46:05.558Z,54.62
2023-09-19T17:48:31.760Z,53.95
2023-09-19T17:50:57.914Z,53.55
2023-09-19T17:53:24.138Z,54.00
2023-09-19T17:55:50.480Z,54.48
2023-09-19T17:58:16.755Z,54.32
2023-09-19T18:03:35.626Z,54.39
2023-09-19T18:06:02.676Z,55.06
2023-09-19T18:08:31.606Z,54.66
2023-09-19T18:10:57.969Z,54.37
2023-09-19T18:13:25.322Z,54.04
2023-09-19T18:15:51.810Z,53.89
2023-09-19T18:18:21.045Z,54.70
2023-09-19T18:20:49.694Z,54.34
2023-09-19T18:23:16.378Z,54.43
2023-09-19T18:25:42.705Z,54.65
2023-09-19T18:28:21.356Z,54.47
2023-09-19T18:30:50.656Z,54.69
2023-09-19T18:34:06.145Z,54.51
2023-09-19T18:38:53.173Z,54.96
2023-09-19T18:41:23.161Z,54.41
2023-09-19T18:43:54.510Z,54.34
2023-09-19T18:49:11.233Z,54.30
2023-09-19T18:51:43.574Z,54.37
2023-09-19T18:54:14.042Z,55.66
2023-09-19T18:59:35.869Z,53.84
2023-09-19T19:05:01.056Z,53.06
2023-09-19T19:07:35.923Z,53.86
2023-09-19T19:10:03.312Z,53.98
2023-09-19T19:12:35.736Z,54.54
2023-09-19T19:15:03.444Z,53.75
2023-09-19T19:23:08.254Z,54.30
2023-09-19T19:28:29.354Z,53.82
2023-09-19T19:31:02.912Z,53.69
2023-09-19T19:33:32.129Z,53.84
2023-09-19T19:36:01.048Z,54.17
2023-09-19T19:38:33.608Z,53.72
2023-09-19T19:43:54.497Z,53.89
2023-09-19T19:46:20.794Z,54.51
2023-09-19T19:48:52.534Z,55.04
2023-09-19T19:51:21.150Z,55.24
2023-09-19T19:53:47.349Z,55.52
2023-09-19T19:56:15.646Z,56.11
2023-09-19T19:58:42.475Z,55.97
2023-09-19T20:01:17.777Z,56.34
2023-09-19T20:03:44.163Z,55.56
2023-09-19T20:06:12.713Z,56.69
2023-09-19T20:08:41.006Z,56.18
2023-09-19T20:11:16.883Z,56.45
2023-09-19T20:13:44.550Z,56.56
2023-09-19T20:16:12.685Z,55.30
2023-09-19T20:18:39.200Z,56.56
2023-09-19T20:21:05.575Z,56.13
2023-09-19T20:23:34.983Z,56.32
2023-09-19T20:26:05.195Z,56.45
2023-09-19T20:28:32.972Z,56.56
2023-09-19T20:31:02.756Z,55.80
2023-09-19T20:33:34.674Z,56.46
2023-09-19T20:36:03.077Z,56.91
2023-09-19T20:38:30.550Z,56.74
2023-09-19T20:40:57.031Z,57.09
2023-09-19T20:43:23.299Z,57.27
2023-09-19T20:45:49.656Z,57.01
2023-09-19T20:51:00.033Z,58.08
2023-09-19T20:53:26.289Z,57.91
2023-09-19T20:55:52.575Z,57.56
2023-09-19T20:58:19.058Z,57.60
2023-09-19T21:00:49.856Z,57.60
2023-09-19T21:03:20.413Z,57.35
2023-09-19T21:05:46.696Z,57.39
2023-09-19T21:08:13.322Z,58.44
2023-09-19T21:10:46.515Z,58.42
2023-09-19T21:13:16.406Z,58.31
2023-09-19T21:15:47.901Z,57.94
2023-09-19T21:18:18.141Z,58.44
2023-09-19T21:20:44.419Z,58.83
2023-09-19T21:23:12.957Z,59.00
2023-09-19T21:25:40.515Z,59.12
2023-09-19T21:28:06.726Z,58.57
2023-09-19T21:30:40.065Z,59.12
2023-09-19T21:33:07.453Z,58.99
2023-09-19T21:35:33.743Z,59.21
2023-09-19T21:37:59.968Z,59.92
2023-09-19T21:40:26.201Z,59.48
2023-09-19T21:42:52.409Z,59.73
2023-09-19T21:45:18.645Z,60.02
2023-09-19T21:47:44.947Z,60.97
2023-09-19T21:50:11.346Z,59.98
2023-09-19T21:52:37.541Z,60.17
2023-09-19T21:55:03.827Z,60.29
2023-09-19T21:57:30.082Z,60.71
2023-09-19T21:59:56.296Z,61.07
2023-09-19T22:02:22.849Z,61.55
2023-09-19T22:04:51.697Z,61.34
2023-09-19T22:07:18.327Z,61.66
2023-09-19T22:09:44.743Z,61.79
2023-09-19T22:12:11.037Z,61.26
2023-09-19T22:14:37.286Z,61.60
2023-09-19T22:17:04.701Z,61.68
2023-09-19T22:19:34.198Z,61.59
2023-09-19T22:22:03.395Z,62.81
2023-09-19T22:24:29.663Z,61.92
2023-09-19T22:26:58.040Z,62.28
2023-09-19T22:29:37.606Z,62.39
2023-09-19T22:32:15.564Z,61.76
2023-09-19T22:34:57.346Z,61.80
2023-09-19T22:37:25.058Z,61.61
2023-09-19T22:39:51.402Z,62.28
2023-09-19T22:42:17.776Z,61.90
2023-09-19T22:44:51.560Z,62.05
2023-09-19T22:47:20.949Z,61.90
2023-09-19T22:49:49.331Z,61.92
2023-09-19T22:52:15.572Z,62.22
2023-09-19T22:54:41.749Z,62.26
2023-09-19T22:57:07.945Z,61.89
2023-09-19T22:59:34.373Z,61.84
2023-09-19T23:02:00.730Z,61.91
2023-09-19T23:04:27.149Z,61.97
2023-09-19T23:06:53.856Z,61.97
2023-09-19T23:09:20.225Z,61.81
2023-09-19T23:11:47.737Z,61.29
2023-09-19T23:14:14.089Z,61.40
2023-09-19T23:16:40.290Z,61.47
2023-09-19T23:19:10.684Z,61.01
2023-09-19T23:21:37.025Z,61.21
2023-09-19T23:24:05.359Z,61.55
2023-09-19T23:26:32.837Z,60.81
2023-09-19T23:28:59.162Z,61.08
2023-09-19T23:31:25.418Z,61.38
2023-09-19T23:33:51.834Z,61.29
2023-09-19T23:36:20.033Z,61.20
2023-09-19T23:38:46.378Z,60.80
2023-09-19T23:41:16.968Z,60.99
2023-09-19T23:43:43.292Z,60.97
2023-09-19T23:46:11.127Z,60.45
2023-09-19T23:48:40.377Z,61.22
2023-09-19T23:51:09.275Z,61.00
2023-09-19T23:53:44.297Z,61.07
2023-09-19T23:56:19.129Z,60.70
2023-09-19T23:58:45.648Z,60.69
